Ourinhos, Brazil
Current Conditions -  °F | °C
As of 6:00 AM on Tuesday 21 Oct 2014 (Local Time) from SBBU Reporting Station
Clear Clear  
Wind Chill: 64°   Ceiling: Unl
Heat Index: 64°   Visibility: 6mi
Dew Point: 59°   Wind: 7mph
Humidity: 83%   Direction: 180°S
Pressure: 30.03"   Gusts: NA
Location:  22.97°S, 49.87°W
Report Text: SBBU 210800Z 18006KT CAVOK 18/15 Q1017
Loading
Personal Weather Stations






























Interactive Weather Map
Tropical Storm Tracking
New forecast layout! Learn more

10-Day Weather Forecast

Advertisements
Track Severe Weather on mobile